createdAt,value
2018-04-16T00:01:27.008Z,9.80
2018-04-16T00:03:54.500Z,9.80
2018-04-16T00:06:21.991Z,9.80
2018-04-16T00:08:49.481Z,9.80
2018-04-16T00:11:16.990Z,9.70
2018-04-16T00:13:44.544Z,9.70
2018-04-16T00:16:12.029Z,9.70
2018-04-16T00:18:39.598Z,9.70
2018-04-16T00:21:07.115Z,9.70
2018-04-16T00:23:34.595Z,9.70
2018-04-16T00:26:02.099Z,9.60
2018-04-16T00:28:29.980Z,9.60
2018-04-16T00:30:57.885Z,9.60
2018-04-16T00:33:31.039Z,9.60
2018-04-16T00:36:04.303Z,9.60
2018-04-16T00:38:37.912Z,9.60
2018-04-16T00:41:11.522Z,9.60
2018-04-16T00:43:45.158Z,9.50
2018-04-16T00:46:18.413Z,9.50
2018-04-16T00:48:51.666Z,9.50
2018-04-16T00:51:26.416Z,9.50
2018-04-16T00:54:11.846Z,9.50
2018-04-16T00:56:45.185Z,9.50
2018-04-16T00:59:18.480Z,9.50
2018-04-16T01:01:51.559Z,9.50
2018-04-16T01:04:27.771Z,9.50
2018-04-16T01:07:00.941Z,9.50
2018-04-16T01:09:34.429Z,9.50
2018-04-16T01:12:08.136Z,9.40
2018-04-16T01:14:41.819Z,9.40
2018-04-16T01:17:15.044Z,9.40
2018-04-16T01:19:48.125Z,9.40
2018-04-16T01:22:21.463Z,9.40
2018-04-16T01:24:54.876Z,9.40
2018-04-16T01:27:27.971Z,9.40
2018-04-16T01:30:01.332Z,9.40
2018-04-16T01:32:34.602Z,9.40
2018-04-16T01:35:07.843Z,9.40
2018-04-16T01:37:41.073Z,9.40
2018-04-16T01:40:14.742Z,9.30
2018-04-16T01:42:47.980Z,9.30
2018-04-16T01:45:21.234Z,9.30
2018-04-16T01:47:54.506Z,9.30
2018-04-16T01:50:27.758Z,9.20
2018-04-16T01:53:08.776Z,9.20
2018-04-16T01:58:45.876Z,9.20
2018-04-16T02:01:19.075Z,9.20
2018-04-16T02:03:52.263Z,9.20
2018-04-16T02:06:25.509Z,9.10
2018-04-16T02:08:58.490Z,9.10
2018-04-16T02:11:31.605Z,9.10
2018-04-16T02:17:10.982Z,9.00
2018-04-16T02:19:44.148Z,9.00
2018-04-16T02:22:17.380Z,9.00
2018-04-16T02:24:50.640Z,8.90
2018-04-16T02:27:23.846Z,8.90
2018-04-16T02:29:57.163Z,8.90
2018-04-16T02:32:30.830Z,8.90
2018-04-16T02:35:04.093Z,8.90
2018-04-16T02:37:37.287Z,8.80
2018-04-16T02:40:10.491Z,8.80
2018-04-16T02:42:43.804Z,8.90
2018-04-16T02:45:17.439Z,8.80
2018-04-16T02:47:50.938Z,8.80
2018-04-16T02:50:24.248Z,8.80
2018-04-16T02:52:57.904Z,8.70
2018-04-16T02:55:31.046Z,8.70
2018-04-16T02:58:04.338Z,8.70
2018-04-16T03:00:37.425Z,8.70
2018-04-16T03:03:10.618Z,8.70
2018-04-16T03:05:43.735Z,8.70
2018-04-16T03:08:17.068Z,8.70
2018-04-16T03:10:50.113Z,8.60
2018-04-16T03:13:23.481Z,8.60
2018-04-16T03:15:56.629Z,8.60
2018-04-16T03:18:29.734Z,8.60
2018-04-16T03:21:02.995Z,8.60
2018-04-16T03:23:36.114Z,8.60
2018-04-16T03:26:09.247Z,8.60
2018-04-16T03:28:42.303Z,8.60
2018-04-16T03:31:16.007Z,8.60
2018-04-16T03:33:49.594Z,8.60
2018-04-16T03:36:22.796Z,8.50
2018-04-16T03:38:56.393Z,8.50
2018-04-16T03:41:29.968Z,8.50
2018-04-16T03:44:03.231Z,8.50
2018-04-16T03:49:41.223Z,8.50
2018-04-16T03:52:14.469Z,8.40
2018-04-16T03:54:51.882Z,8.40
2018-04-16T03:57:19.364Z,8.40
2018-04-16T03:59:46.872Z,8.40
2018-04-16T04:02:14.362Z,8.30
2018-04-16T04:04:42.262Z,8.30
2018-04-16T04:07:09.731Z,8.30
2018-04-16T04:09:37.235Z,8.30
2018-04-16T04:12:05.114Z,8.20
2018-04-16T04:14:33.008Z,8.20
2018-04-16T04:17:00.480Z,8.20
2018-04-16T04:19:27.975Z,8.20
2018-04-16T04:21:55.455Z,8.20
2018-04-16T04:24:35.237Z,8.20
2018-04-16T04:27:14.558Z,8.20
2018-04-16T04:29:54.104Z,8.20
2018-04-16T04:32:21.581Z,8.20
2018-04-16T04:34:49.069Z,8.20
2018-04-16T04:37:16.554Z,8.20
2018-04-16T04:39:44.049Z,8.10
2018-04-16T04:42:11.575Z,8.10
2018-04-16T04:44:39.059Z,8.10
2018-04-16T04:47:06.544Z,8.20
2018-04-16T04:49:34.029Z,8.20
2018-04-16T04:52:01.922Z,8.20
2018-04-16T04:54:29.407Z,8.20
2018-04-16T04:56:56.889Z,8.30
2018-04-16T04:59:24.361Z,8.30
2018-04-16T05:01:52.240Z,8.40
2018-04-16T05:04:19.737Z,8.40
2018-04-16T05:06:47.219Z,8.40
2018-04-16T05:09:14.705Z,8.50
2018-04-16T05:11:42.605Z,8.60
2018-04-16T05:14:10.084Z,8.60
2018-04-16T05:16:37.566Z,8.70
2018-04-16T05:19:05.054Z,8.70
2018-04-16T05:21:32.561Z,8.70
2018-04-16T05:24:00.036Z,8.80
2018-04-16T05:26:27.524Z,8.80
2018-04-16T05:28:55.026Z,8.90
2018-04-16T05:31:22.500Z,8.90
2018-04-16T05:33:50.002Z,9.00
2018-04-16T05:36:17.490Z,9.00
2018-04-16T05:38:44.981Z,9.10
2018-04-16T05:41:12.459Z,9.10
2018-04-16T05:43:39.954Z,9.10
2018-04-16T05:46:07.458Z,9.20
2018-04-16T05:48:35.333Z,9.30
2018-04-16T05:51:03.326Z,9.30
2018-04-16T05:53:30.802Z,9.30
2018-04-16T05:55:58.289Z,9.30
2018-04-16T05:58:26.187Z,9.40
2018-04-16T06:00:54.077Z,9.40
2018-04-16T06:03:21.558Z,9.40
2018-04-16T06:05:49.065Z,9.50
2018-04-16T06:08:16.951Z,9.70
2018-04-16T06:10:44.520Z,9.70
2018-04-16T06:13:12.113Z,9.80
2018-04-16T06:15:39.611Z,10.00
2018-04-16T06:18:07.195Z,10.30
2018-04-16T06:20:34.759Z,10.60
2018-04-16T06:23:02.306Z,10.90
2018-04-16T06:25:29.803Z,11.20
2018-04-16T06:27:57.329Z,11.60
2018-04-16T06:30:24.828Z,11.90
2018-04-16T06:32:52.368Z,12.30
2018-04-16T06:35:19.865Z,12.60
2018-04-16T06:37:47.863Z,13.20
2018-04-16T06:40:15.335Z,13.20
2018-04-16T06:42:42.995Z,13.40
2018-04-16T06:45:10.479Z,13.50
2018-04-16T06:47:37.977Z,13.80
2018-04-16T06:50:05.548Z,14.00
2018-04-16T06:52:33.037Z,14.10
2018-04-16T06:55:00.637Z,14.40
2018-04-16T06:57:28.538Z,15.30
2018-04-16T06:59:56.064Z,15.30
2018-04-16T07:02:23.964Z,16.20
2018-04-16T07:04:51.483Z,16.20
2018-04-16T07:07:19.401Z,17.10
2018-04-16T07:09:46.928Z,17.10
2018-04-16T07:12:14.481Z,17.60
2018-04-16T07:14:41.987Z,18.00
2018-04-16T07:17:09.592Z,18.50
2018-04-16T07:19:37.116Z,18.70
2018-04-16T07:22:04.607Z,18.70
2018-04-16T07:24:32.514Z,18.80
2018-04-16T07:27:00.024Z,18.80
2018-04-16T07:29:28.125Z,18.70
2018-04-16T07:31:55.620Z,18.70
2018-04-16T07:34:23.112Z,18.70
2018-04-16T07:36:50.977Z,19.40
2018-04-16T07:39:18.856Z,19.30
2018-04-16T07:41:46.357Z,19.30
2018-04-16T07:44:13.846Z,19.00
2018-04-16T07:46:41.398Z,18.70
2018-04-16T07:49:13.028Z,19.20
2018-04-16T07:51:40.567Z,19.20
2018-04-16T07:54:08.041Z,19.60
2018-04-16T07:56:35.531Z,19.20
2018-04-16T07:59:03.031Z,19.60
2018-04-16T08:01:30.560Z,19.80
2018-04-16T08:03:58.042Z,20.00
2018-04-16T08:06:25.518Z,20.20
2018-04-16T08:08:53.030Z,20.30
2018-04-16T08:11:20.920Z,20.60
2018-04-16T08:13:48.583Z,20.60
2018-04-16T08:16:16.208Z,21.00
2018-04-16T08:18:43.813Z,21.00
2018-04-16T08:21:11.375Z,20.80
2018-04-16T08:23:38.899Z,21.10
2018-04-16T08:26:06.494Z,20.90
2018-04-16T08:28:34.086Z,21.00
2018-04-16T08:31:01.668Z,21.10
2018-04-16T08:33:29.620Z,21.10
2018-04-16T08:35:57.212Z,21.10
2018-04-16T08:38:24.793Z,20.60
2018-04-16T08:40:52.297Z,21.20
2018-04-16T08:43:19.783Z,20.90
2018-04-16T08:45:47.683Z,21.10
2018-04-16T08:48:15.181Z,21.10
2018-04-16T08:50:42.673Z,21.20
2018-04-16T08:53:10.178Z,21.20
2018-04-16T08:55:37.684Z,20.90
2018-04-16T08:58:05.169Z,21.00
2018-04-16T09:00:32.651Z,20.70
2018-04-16T09:03:00.151Z,20.70
2018-04-16T09:05:28.026Z,21.00
2018-04-16T09:07:55.519Z,21.00
2018-04-16T09:10:23.026Z,20.80
2018-04-16T09:12:50.903Z,21.20
2018-04-16T09:15:18.414Z,21.20
2018-04-16T09:17:45.899Z,21.40
2018-04-16T09:20:13.799Z,22.20
2018-04-16T09:22:41.299Z,22.20
2018-04-16T09:25:08.775Z,22.80
2018-04-16T09:27:36.322Z,23.40
2018-04-16T09:30:03.790Z,23.30
2018-04-16T09:32:31.659Z,22.70
2018-04-16T09:34:59.587Z,22.20
2018-04-16T09:37:27.075Z,22.20
2018-04-16T09:39:54.826Z,22.00
2018-04-16T09:42:22.302Z,21.60
2018-04-16T09:44:50.210Z,22.30
2018-04-16T09:47:17.752Z,22.30
2018-04-16T09:49:45.228Z,22.60
2018-04-16T09:52:12.713Z,22.90
2018-04-16T09:54:40.221Z,22.80
2018-04-16T09:57:07.695Z,22.80
2018-04-16T09:59:35.260Z,22.50
2018-04-16T10:02:02.755Z,22.80
2018-04-16T10:04:30.238Z,23.10
2018-04-16T10:06:58.111Z,23.10
2018-04-16T10:09:26.001Z,22.90
2018-04-16T10:11:53.530Z,22.90
2018-04-16T10:14:21.408Z,22.40
2018-04-16T10:16:48.887Z,22.40
2018-04-16T10:19:16.383Z,22.70
2018-04-16T10:21:43.874Z,23.40
2018-04-16T10:24:11.751Z,23.20
2018-04-16T10:26:39.240Z,23.30
2018-04-16T10:29:06.735Z,23.10
2018-04-16T10:31:34.637Z,23.30
2018-04-16T10:34:02.137Z,23.30
2018-04-16T10:36:29.659Z,24.00
2018-04-16T10:38:57.143Z,23.50
2018-04-16T10:41:24.633Z,22.80
2018-04-16T10:43:52.531Z,22.30
2018-04-16T10:46:20.011Z,22.30
2018-04-16T10:48:47.522Z,21.90
2018-04-16T10:51:15.421Z,22.00
2018-04-16T10:53:42.949Z,22.00
2018-04-16T10:56:10.845Z,21.80
2018-04-16T10:58:38.344Z,21.90
2018-04-16T11:01:05.828Z,22.00
2018-04-16T11:03:33.705Z,21.30
2018-04-16T11:06:01.203Z,21.30
2018-04-16T11:08:28.710Z,21.70
2018-04-16T11:10:56.584Z,21.80
2018-04-16T11:13:25.257Z,21.80
2018-04-16T11:15:52.765Z,21.80
2018-04-16T11:18:20.278Z,20.60
2018-04-16T11:20:47.771Z,20.70
2018-04-16T11:23:15.255Z,20.50
2018-04-16T11:25:42.753Z,20.80
2018-04-16T11:28:10.243Z,21.50
2018-04-16T11:30:37.743Z,22.20
2018-04-16T11:33:06.202Z,22.20
2018-04-16T11:35:33.684Z,22.80
2018-04-16T11:38:01.204Z,23.30
2018-04-16T11:40:28.740Z,23.10
2018-04-16T11:42:56.348Z,23.10
2018-04-16T11:45:23.977Z,22.50
2018-04-16T11:47:51.602Z,22.00
2018-04-16T11:50:19.719Z,22.20
2018-04-16T11:52:47.255Z,22.20
2018-04-16T11:55:14.752Z,22.10
2018-04-16T11:57:45.775Z,22.20
2018-04-16T12:00:13.260Z,22.20
2018-04-16T12:02:40.754Z,22.00
2018-04-16T12:05:08.265Z,22.70
2018-04-16T12:07:35.743Z,22.60
2018-04-16T12:10:03.656Z,22.80
2018-04-16T12:12:31.150Z,22.80
2018-04-16T12:14:58.651Z,22.50
2018-04-16T12:17:26.142Z,22.80
2018-04-16T12:19:53.639Z,22.20
2018-04-16T12:22:21.540Z,21.80
2018-04-16T12:24:49.055Z,21.80
2018-04-16T12:27:16.939Z,21.70
2018-04-16T12:29:44.823Z,21.70
2018-04-16T12:32:12.345Z,21.70
2018-04-16T12:34:39.832Z,22.00
2018-04-16T12:37:07.390Z,21.60
2018-04-16T12:39:34.906Z,21.40
2018-04-16T12:42:02.386Z,21.90
2018-04-16T12:44:30.294Z,21.90
2018-04-16T12:46:57.813Z,21.90
2018-04-16T12:49:25.339Z,22.20
2018-04-16T12:51:52.875Z,22.60
2018-04-16T12:54:20.346Z,23.30
2018-04-16T12:56:47.819Z,23.50
2018-04-16T12:59:15.623Z,23.90
2018-04-16T13:01:46.091Z,23.60
2018-04-16T13:04:13.922Z,23.90
2018-04-16T13:06:45.429Z,23.60
2018-04-16T13:09:15.693Z,23.60
2018-04-16T13:11:43.333Z,23.20
2018-04-16T13:14:12.913Z,22.90
2018-04-16T13:16:42.087Z,23.00
2018-04-16T13:19:09.598Z,22.70
2018-04-16T13:21:37.961Z,23.30
2018-04-16T13:24:05.865Z,24.00
2018-04-16T13:26:33.339Z,24.00
2018-04-16T13:29:00.878Z,24.60
2018-04-16T13:31:28.699Z,24.50
2018-04-16T13:33:56.171Z,24.70
2018-04-16T13:36:24.096Z,24.10
2018-04-16T13:38:51.563Z,24.10
2018-04-16T13:41:19.054Z,23.90
2018-04-16T13:43:46.930Z,23.50
2018-04-16T13:46:14.792Z,23.80
2018-04-16T13:48:42.672Z,24.20
2018-04-16T13:51:10.154Z,24.20
2018-04-16T13:53:37.636Z,24.40
2018-04-16T13:56:05.200Z,23.90
2018-04-16T13:58:33.137Z,23.60
2018-04-16T14:01:00.637Z,22.30
2018-04-16T14:03:28.123Z,22.60
2018-04-16T14:05:55.611Z,22.40
2018-04-16T14:08:23.072Z,22.10
2018-04-16T14:10:50.575Z,22.00
2018-04-16T14:13:18.458Z,21.80
2018-04-16T14:15:45.963Z,21.80
2018-04-16T14:18:13.435Z,22.50
2018-04-16T14:20:40.935Z,23.50
2018-04-16T14:23:08.419Z,24.00
2018-04-16T14:25:36.007Z,24.40
2018-04-16T14:28:03.738Z,23.90
2018-04-16T14:30:31.297Z,24.30
2018-04-16T14:32:58.809Z,24.80
2018-04-16T14:35:27.155Z,24.60
2018-04-16T14:37:56.481Z,24.30
2018-04-16T14:40:24.383Z,24.10
2018-04-16T14:42:51.879Z,24.10
2018-04-16T14:45:19.366Z,22.60
2018-04-16T14:47:47.284Z,22.00
2018-04-16T14:50:14.764Z,22.00
2018-04-16T14:52:50.021Z,22.10
2018-04-16T14:55:17.500Z,22.00
2018-04-16T14:57:44.979Z,22.10
2018-04-16T15:00:12.469Z,22.50
2018-04-16T15:02:40.673Z,21.90
2018-04-16T15:05:08.568Z,21.70
2018-04-16T15:07:36.039Z,21.70
2018-04-16T15:10:03.542Z,22.20
2018-04-16T15:12:31.043Z,21.80
2018-04-16T15:14:58.533Z,21.50
2018-04-16T15:17:26.050Z,20.90
2018-04-16T15:19:53.545Z,20.30
2018-04-16T15:22:21.917Z,19.90
2018-04-16T15:24:49.420Z,19.60
2018-04-16T15:27:17.321Z,19.40
2018-04-16T15:29:44.879Z,19.40
2018-04-16T15:32:12.367Z,19.20
2018-04-16T15:34:39.860Z,19.20
2018-04-16T15:37:07.743Z,19.90
2018-04-16T15:39:35.254Z,19.90
2018-04-16T15:42:02.727Z,20.70
2018-04-16T15:44:30.199Z,20.90
2018-04-16T15:46:58.119Z,21.10
2018-04-16T15:49:25.613Z,21.10
2018-04-16T15:51:53.500Z,20.90
2018-04-16T15:54:20.995Z,20.90
2018-04-16T15:56:48.494Z,20.70
2018-04-16T15:59:16.382Z,20.20
2018-04-16T16:01:44.293Z,19.90
2018-04-16T16:04:12.246Z,20.00
2018-04-16T16:06:40.586Z,20.00
2018-04-16T16:09:08.582Z,20.00
2018-04-16T16:11:36.098Z,20.00
2018-04-16T16:14:16.638Z,20.50
2018-04-16T16:16:44.528Z,20.50
2018-04-16T16:19:12.672Z,20.70
2018-04-16T16:21:40.880Z,20.70
2018-04-16T16:27:07.422Z,20.20
2018-04-16T16:29:35.204Z,19.90
2018-04-16T16:32:03.897Z,19.50
2018-04-16T16:34:33.682Z,19.40
2018-04-16T16:37:04.205Z,19.10
2018-04-16T16:39:33.990Z,19.10
2018-04-16T16:42:05.177Z,18.80
2018-04-16T16:44:36.309Z,18.60
2018-04-16T16:47:05.493Z,18.40
2018-04-16T16:49:54.014Z,18.30
2018-04-16T16:54:56.734Z,18.30
2018-04-16T16:57:24.343Z,18.40
2018-04-16T16:59:51.983Z,18.30
2018-04-16T17:02:19.993Z,18.30
2018-04-16T17:04:48.504Z,18.30
2018-04-16T17:07:18.761Z,18.30
2018-04-16T17:09:46.351Z,18.30
2018-04-16T17:12:13.911Z,18.20
2018-04-16T17:14:41.462Z,18.10
2018-04-16T17:17:09.163Z,18.10
2018-04-16T17:19:36.804Z,18.00
2018-04-16T17:22:04.466Z,18.00
2018-04-16T17:24:32.059Z,17.90
2018-04-16T17:26:59.682Z,17.90
2018-04-16T17:29:27.487Z,17.90
2018-04-16T17:31:55.136Z,17.90
2018-04-16T17:34:22.689Z,17.70
2018-04-16T17:36:50.296Z,17.70
2018-04-16T17:39:18.363Z,17.70
2018-04-16T17:41:47.024Z,17.60
2018-04-16T17:44:15.031Z,17.60
2018-04-16T17:46:42.646Z,17.60
2018-04-16T17:49:10.224Z,17.50
2018-04-16T17:51:37.851Z,17.50
2018-04-16T17:54:05.395Z,17.40
2018-04-16T17:56:34.925Z,17.30
2018-04-16T17:59:03.985Z,17.10
2018-04-16T18:01:31.610Z,17.00
2018-04-16T18:03:59.141Z,16.90
2018-04-16T18:06:26.620Z,16.80
2018-04-16T18:08:54.483Z,16.60
2018-04-16T18:11:22.360Z,16.50
2018-04-16T18:13:49.851Z,16.50
2018-04-16T18:16:17.423Z,16.40
2018-04-16T18:18:44.875Z,16.30
2018-04-16T18:21:12.387Z,16.20
2018-04-16T18:23:39.889Z,16.10
2018-04-16T18:26:07.377Z,16.00
2018-04-16T18:28:36.843Z,15.90
2018-04-16T18:31:05.357Z,15.90
2018-04-16T18:33:37.110Z,15.70
2018-04-16T18:36:04.618Z,15.70
2018-04-16T18:38:32.099Z,15.50
2018-04-16T18:40:59.616Z,15.50
2018-04-16T18:43:27.510Z,15.30
2018-04-16T18:45:56.932Z,15.30
2018-04-16T18:48:24.432Z,15.20
2018-04-16T18:50:52.305Z,15.10
2018-04-16T18:53:20.245Z,15.00
2018-04-16T18:55:47.772Z,15.00
2018-04-16T18:58:16.730Z,15.00
2018-04-16T19:00:50.392Z,14.90
2018-04-16T19:03:21.528Z,14.90
2018-04-16T19:06:06.520Z,14.80
2018-04-16T19:11:47.968Z,14.70
2018-04-16T19:14:29.877Z,14.60
2018-04-16T19:22:55.766Z,14.30
2018-04-16T19:25:26.644Z,14.20
2018-04-16T19:28:17.948Z,14.10
2018-04-16T19:30:45.698Z,14.00
2018-04-16T19:36:03.439Z,13.90
2018-04-16T19:38:35.769Z,13.80
2018-04-16T19:41:03.536Z,13.70
2018-04-16T19:43:35.381Z,13.60
2018-04-16T19:46:03.531Z,13.50
2018-04-16T19:48:36.775Z,13.50
2018-04-16T19:51:06.468Z,13.40
2018-04-16T19:53:34.031Z,13.30
2018-04-16T19:56:07.267Z,13.30
2018-04-16T19:58:36.194Z,13.10
2018-04-16T20:01:03.834Z,13.10
2018-04-16T20:03:37.085Z,13.10
2018-04-16T20:06:04.678Z,13.00
2018-04-16T20:08:36.832Z,12.90
2018-04-16T20:14:14.904Z,12.80
2018-04-16T20:16:42.453Z,12.70
2018-04-16T20:19:10.005Z,12.70
2018-04-16T20:21:38.469Z,12.60
2018-04-16T20:24:06.054Z,12.60
2018-04-16T20:26:35.536Z,12.50
2018-04-16T20:29:03.136Z,12.40
2018-04-16T20:31:30.655Z,12.30
2018-04-16T20:33:58.227Z,12.30
2018-04-16T20:36:25.747Z,12.20
2018-04-16T20:38:53.658Z,12.00
2018-04-16T20:41:24.871Z,12.00
2018-04-16T20:43:52.803Z,11.90
2018-04-16T20:46:20.342Z,11.90
2018-04-16T20:48:47.868Z,11.80
2018-04-16T20:51:15.391Z,11.70
2018-04-16T20:53:42.952Z,11.60
2018-04-16T20:56:10.890Z,11.50
2018-04-16T20:58:38.487Z,11.50
2018-04-16T21:01:06.087Z,11.40
2018-04-16T21:03:33.673Z,11.30
2018-04-16T21:06:01.329Z,11.30
2018-04-16T21:08:28.966Z,11.20
2018-04-16T21:10:56.525Z,11.10
2018-04-16T21:13:28.618Z,11.10
2018-04-16T21:15:56.268Z,11.00
2018-04-16T21:18:23.786Z,10.90
2018-04-16T21:20:51.439Z,10.90
2018-04-16T21:23:19.028Z,10.80
2018-04-16T21:25:46.615Z,10.70
2018-04-16T21:28:14.263Z,10.70
2018-04-16T21:30:41.786Z,10.70
2018-04-16T21:33:09.328Z,10.60
2018-04-16T21:35:37.289Z,10.60
2018-04-16T21:38:05.257Z,10.50
2018-04-16T21:40:34.128Z,10.40
2018-04-16T21:43:01.775Z,10.40
2018-04-16T21:45:29.427Z,10.40
2018-04-16T21:47:57.379Z,10.30
2018-04-16T21:50:25.009Z,10.30
2018-04-16T21:52:53.932Z,10.20
2018-04-16T21:55:21.904Z,10.20
2018-04-16T21:57:50.402Z,10.20
2018-04-16T22:00:19.934Z,10.10
2018-04-16T22:05:29.375Z,9.90
2018-04-16T22:07:57.105Z,10.00
2018-04-16T22:10:25.188Z,9.90
2018-04-16T22:12:52.790Z,9.80
2018-04-16T22:15:20.691Z,9.70
2018-04-16T22:17:48.184Z,9.70
2018-04-16T22:20:15.673Z,9.70
2018-04-16T22:22:43.224Z,9.70
2018-04-16T22:25:10.758Z,9.60
2018-04-16T22:27:38.255Z,9.60
2018-04-16T22:30:06.200Z,9.50
2018-04-16T22:32:33.684Z,9.50
2018-04-16T22:35:01.587Z,9.40
2018-04-16T22:37:29.068Z,9.40
2018-04-16T22:39:56.547Z,9.40
2018-04-16T22:42:24.020Z,9.40
2018-04-16T22:44:51.933Z,9.30
2018-04-16T22:47:19.434Z,9.30
2018-04-16T22:49:47.304Z,9.20
2018-04-16T22:52:15.210Z,9.10
2018-04-16T22:54:42.698Z,9.20
2018-04-16T22:57:10.175Z,9.10
2018-04-16T22:59:37.648Z,9.10
2018-04-16T23:02:05.531Z,9.00
2018-04-16T23:04:33.022Z,9.00
2018-04-16T23:07:00.518Z,9.00
2018-04-16T23:09:28.504Z,8.80
2018-04-16T23:11:56.024Z,8.80
2018-04-16T23:14:23.509Z,8.80
2018-04-16T23:16:51.010Z,8.70
2018-04-16T23:19:18.501Z,8.70
2018-04-16T23:21:45.990Z,8.60
2018-04-16T23:24:13.847Z,8.60
2018-04-16T23:26:41.737Z,8.60
2018-04-16T23:29:09.266Z,8.50
2018-04-16T23:31:37.121Z,8.50
2018-04-16T23:34:04.634Z,8.50
2018-04-16T23:36:32.118Z,8.40
2018-04-16T23:38:59.589Z,8.40
2018-04-16T23:41:27.076Z,8.40
2018-04-16T23:43:54.591Z,8.30
2018-04-16T23:46:23.374Z,8.30
2018-04-16T23:48:50.839Z,8.30
2018-04-16T23:51:18.355Z,8.20
2018-04-16T23:53:45.904Z,8.20
2018-04-16T23:56:13.422Z,8.20
2018-04-16T23:58:48.782Z,8.20
